Time;durP1;ratioP1;P1;durP2;ratioP2;P2;SDS_P1;SDS_P2;PMS_P1;PMS_P2;Temp;Humidity;BMP_temperature;BMP_pressure;BME280_temperature;BME280_humidity;BME280_pressure;Samples;Min_cycle;Max_cycle;Signal;HPM_P1;HPM_P2
2023/02/05 00:00:22;;;;;;;14.27;4.50;;;1.40;91.90;;;;;;5038794;28;20029;-67
2023/02/05 00:02:47;;;;;;;15.20;4.43;;;1.30;92.10;;;;;;5045913;28;20361;-67
2023/02/05 00:05:13;;;;;;;10.07;4.38;;;1.30;92.30;;;;;;5033978;28;20042;-67
2023/02/05 00:07:38;;;;;;;13.38;4.72;;;1.30;92.60;;;;;;5035153;28;20104;-68
2023/02/05 00:10:04;;;;;;;15.25;5.38;;;1.30;92.40;;;;;;5033914;28;21149;-69
2023/02/05 00:12:30;;;;;;;14.95;5.80;;;1.30;92.50;;;;;;5033875;28;20021;-68
2023/02/05 00:14:56;;;;;;;21.42;5.80;;;1.30;92.50;;;;;;5037626;28;20114;-69
2023/02/05 00:17:21;;;;;;;15.00;5.25;;;1.30;92.40;;;;;;5047977;28;20378;-68
2023/02/05 00:19:47;;;;;;;20.42;7.07;;;1.30;91.60;;;;;;5059510;28;20101;-68
2023/02/05 00:22:12;;;;;;;17.02;6.38;;;1.30;93.90;;;;;;5058384;28;20021;-68
2023/02/05 00:24:38;;;;;;;20.40;6.63;;;1.30;93.90;;;;;;5056998;28;20463;-68
2023/02/05 00:27:04;;;;;;;20.92;8.65;;;1.30;94.00;;;;;;5033825;28;20025;-68
2023/02/05 00:29:29;;;;;;;18.05;7.28;;;1.20;93.80;;;;;;5033332;28;20048;-68
2023/02/05 00:31:55;;;;;;;24.05;7.20;;;1.20;92.80;;;;;;5033077;28;20048;-68
2023/02/05 00:34:22;;;;;;;28.08;7.72;;;1.10;92.80;;;;;;5034289;28;20098;-68
2023/02/05 00:36:50;;;;;;;19.38;6.78;;;1.00;92.40;;;;;;5033381;28;20060;-68
2023/02/05 00:39:15;;;;;;;14.98;5.88;;;1.00;91.50;;;;;;5032286;28;20028;-68
2023/02/05 00:41:41;;;;;;;17.45;5.32;;;0.90;91.10;;;;;;5036290;28;20326;-68
2023/02/05 00:44:06;;;;;;;17.85;7.47;;;0.90;90.30;;;;;;5042900;28;20033;-68
2023/02/05 00:46:32;;;;;;;20.20;6.43;;;0.90;89.70;;;;;;5036169;28;20038;-68
2023/02/05 00:48:58;;;;;;;20.13;6.38;;;0.90;89.40;;;;;;5051064;28;20029;-68
2023/02/05 00:51:23;;;;;;;22.70;6.63;;;0.90;88.90;;;;;;5050936;28;20043;-68
2023/02/05 00:53:49;;;;;;;21.17;7.55;;;0.90;89.70;;;;;;5046355;28;20056;-68
2023/02/05 00:56:14;;;;;;;19.95;7.45;;;0.90;89.60;;;;;;5054279;28;20036;-68
2023/02/05 00:58:40;;;;;;;31.95;9.85;;;0.90;89.10;;;;;;5049227;28;20025;-68
2023/02/05 01:01:09;;;;;;;19.30;7.18;;;0.80;88.90;;;;;;5044643;28;20108;-68
2023/02/05 01:03:34;;;;;;;23.10;7.55;;;0.80;89.20;;;;;;5049328;28;20317;-68
2023/02/05 01:06:02;;;;;;;19.05;6.90;;;0.80;88.40;;;;;;5038723;28;20033;-68
2023/02/05 01:08:27;;;;;;;20.00;7.90;;;0.80;88.30;;;;;;5042515;28;20014;-68
2023/02/05 01:10:53;;;;;;;20.58;7.03;;;0.90;88.30;;;;;;5058611;28;20021;-68
2023/02/05 01:13:18;;;;;;;18.85;7.25;;;0.90;88.50;;;;;;5043425;28;20025;-68
2023/02/05 01:15:44;;;;;;;22.17;8.57;;;1.00;89.00;;;;;;5053493;28;20030;-68
2023/02/05 01:18:10;;;;;;;22.08;6.78;;;0.90;89.50;;;;;;5042279;28;20025;-68
2023/02/05 01:20:37;;;;;;;16.40;6.10;;;0.90;89.80;;;;;;5056920;28;20025;-68
2023/02/05 01:23:03;;;;;;;18.85;6.28;;;0.70;89.50;;;;;;5050559;28;20115;-68
2023/02/05 01:25:29;;;;;;;18.50;6.72;;;0.60;89.10;;;;;;5058197;28;20052;-68
2023/02/05 01:27:54;;;;;;;20.50;6.40;;;0.60;88.60;;;;;;5054888;28;20069;-68
2023/02/05 01:30:20;;;;;;;17.20;6.28;;;0.50;87.00;;;;;;5054238;28;20052;-68
2023/02/05 01:32:46;;;;;;;19.00;6.90;;;0.50;86.50;;;;;;5050977;28;20105;-68
2023/02/05 01:35:11;;;;;;;21.25;6.95;;;0.40;87.50;;;;;;5049258;28;20021;-68
2023/02/05 01:37:37;;;;;;;16.70;6.45;;;0.30;86.70;;;;;;5051116;28;20036;-68
2023/02/05 01:40:03;;;;;;;16.27;7.03;;;0.30;86.10;;;;;;5052982;28;20068;-68
2023/02/05 01:42:30;;;;;;;17.20;6.70;;;0.30;85.10;;;;;;5038072;28;20025;-68
2023/02/05 01:45:20;;;;;;;22.98;7.68;;;0.30;84.60;;;;;;5052955;28;20043;-68
2023/02/05 01:47:55;;;;;;;20.33;6.80;;;0.30;84.20;;;;;;5055077;28;20057;-68
2023/02/05 01:50:26;;;;;;;16.40;6.05;;;0.30;84.10;;;;;;5056124;28;20068;-68
2023/02/05 01:52:55;;;;;;;18.73;7.15;;;0.30;84.10;;;;;;5052953;28;20032;-68
2023/02/05 01:55:21;;;;;;;18.10;6.95;;;0.20;84.20;;;;;;5049951;28;20390;-68
2023/02/05 01:57:49;;;;;;;20.25;6.78;;;0.20;83.70;;;;;;5050914;28;20068;-68
2023/02/05 02:00:14;;;;;;;24.02;6.88;;;0.20;82.50;;;;;;5051987;28;20036;-68
2023/02/05 02:02:41;;;;;;;17.77;5.97;;;0.20;82.20;;;;;;5045659;28;20030;-68
2023/02/05 02:05:16;;;;;;;16.55;6.13;;;0.10;82.60;;;;;;5051027;28;20040;-68
2023/02/05 02:07:41;;;;;;;17.42;6.35;;;0.10;81.60;;;;;;5047154;28;20028;-68
2023/02/05 02:10:11;;;;;;;16.33;5.80;;;0.10;81.90;;;;;;5041955;28;20031;-68
2023/02/05 02:12:40;;;;;;;23.25;6.82;;;0.20;81.60;;;;;;5057382;28;20025;-67
2023/02/05 02:15:11;;;;;;;23.80;6.20;;;0.20;82.00;;;;;;5050218;28;20021;-67
2023/02/05 02:17:41;;;;;;;19.45;5.68;;;0.20;82.20;;;;;;5055654;28;20039;-68
2023/02/05 02:20:20;;;;;;;13.95;6.20;;;0.20;81.60;;;;;;5044259;28;20380;-67
2023/02/05 02:22:54;;;;;;;18.30;6.68;;;0.20;82.10;;;;;;5056104;28;20025;-67
2023/02/05 02:25:56;;;;;;;19.63;5.75;;;0.20;81.90;;;;;;5051023;28;20484;-68
2023/02/05 02:28:50;;;;;;;19.48;7.63;;;0.20;81.90;;;;;;5031236;28;20068;-68
2023/02/05 02:31:33;;;;;;;17.48;6.43;;;0.20;82.10;;;;;;5030969;28;20032;-67
2023/02/05 02:34:01;;;;;;;17.25;6.00;;;0.20;82.20;;;;;;5030772;28;20099;-67
2023/02/05 02:36:54;;;;;;;27.25;6.70;;;0.20;82.10;;;;;;5039676;28;20025;-67
2023/02/05 02:39:28;;;;;;;17.02;6.05;;;0.30;82.20;;;;;;5051169;28;20083;-67
2023/02/05 02:42:20;;;;;;;19.13;5.55;;;0.30;82.50;;;;;;5048766;28;20035;-68
2023/02/05 02:44:52;;;;;;;14.48;5.25;;;0.30;83.10;;;;;;5039499;28;20033;-67
2023/02/05 02:47:20;;;;;;;15.55;4.50;;;0.40;82.90;;;;;;5042868;28;20029;-67
2023/02/05 02:49:56;;;;;;;10.77;4.50;;;0.30;84.30;;;;;;5041069;28;20029;-67
2023/02/05 02:52:24;;;;;;;16.63;5.40;;;0.40;83.30;;;;;;5053428;28;20044;-67
2023/02/05 02:54:54;;;;;;;22.15;8.43;;;0.50;83.60;;;;;;5053908;28;20029;-67
2023/02/05 02:57:24;;;;;;;17.63;5.45;;;0.40;84.60;;;;;;5045355;28;20030;-67
2023/02/05 02:59:53;;;;;;;22.90;6.45;;;0.50;83.10;;;;;;5054269;28;20299;-67
2023/02/05 03:02:20;;;;;;;22.15;6.38;;;0.50;85.00;;;;;;5046590;28;21270;-69
2023/02/05 03:04:55;;;;;;;19.42;6.43;;;0.50;84.90;;;;;;5056355;28;20036;-69
2023/02/05 03:07:32;;;;;;;19.90;5.70;;;0.50;85.00;;;;;;5053260;28;20079;-68
2023/02/05 03:10:11;;;;;;;19.83;6.78;;;0.60;85.00;;;;;;5040359;28;20029;-68
2023/02/05 03:12:37;;;;;;;24.40;8.70;;;0.50;85.80;;;;;;5040918;28;20108;-68
2023/02/05 03:15:03;;;;;;;22.15;6.70;;;0.50;85.10;;;;;;5054256;28;20544;-68
2023/02/05 03:17:29;;;;;;;18.92;6.50;;;0.60;85.80;;;;;;5054750;28;20441;-67
2023/02/05 03:20:17;;;;;;;18.55;6.45;;;0.50;86.10;;;;;;5056086;28;20032;-68
2023/02/05 03:22:43;;;;;;;19.10;5.47;;;0.50;85.90;;;;;;5053254;28;20029;-68
2023/02/05 03:25:09;;;;;;;16.88;5.13;;;0.60;86.20;;;;;;5053471;28;20457;-68
2023/02/05 03:27:35;;;;;;;18.67;5.90;;;0.60;87.40;;;;;;5052490;28;20031;-68
2023/02/05 03:30:02;;;;;;;19.80;6.03;;;0.70;88.10;;;;;;5044554;28;20030;-68
2023/02/05 03:32:36;;;;;;;15.27;5.28;;;0.70;89.00;;;;;;5046378;28;20523;-67
2023/02/05 03:35:37;;;;;;;18.05;5.18;;;0.70;89.50;;;;;;5054818;28;20021;-68
2023/02/05 03:38:22;;;;;;;12.80;5.53;;;0.70;89.90;;;;;;5031074;28;20044;-67
2023/02/05 03:41:01;;;;;;;14.77;5.00;;;0.60;89.90;;;;;;5039744;28;20029;-67
2023/02/05 03:43:47;;;;;;;19.67;5.50;;;0.60;89.60;;;;;;5053907;28;20025;-68
2023/02/05 03:46:26;;;;;;;14.63;4.40;;;0.60;89.50;;;;;;5052644;28;20049;-67
2023/02/05 03:49:09;;;;;;;16.05;5.18;;;0.70;89.60;;;;;;5053272;28;20028;-67
2023/02/05 03:51:41;;;;;;;17.88;5.13;;;0.60;90.20;;;;;;5054261;28;20029;-68
2023/02/05 03:54:19;;;;;;;14.48;5.38;;;0.60;89.80;;;;;;5051129;28;20036;-67
2023/02/05 03:56:47;;;;;;;17.75;6.10;;;0.60;89.60;;;;;;5044864;28;20056;-68
2023/02/05 03:59:15;;;;;;;16.15;5.97;;;0.50;89.50;;;;;;5036004;28;20021;-68
2023/02/05 04:01:42;;;;;;;20.42;5.88;;;0.50;88.20;;;;;;5054079;28;20083;-67
2023/02/05 04:04:07;;;;;;;14.38;4.43;;;0.50;87.90;;;;;;5050894;28;20440;-67
2023/02/05 04:06:36;;;;;;;20.17;5.18;;;0.50;88.20;;;;;;5051487;28;20100;-68
2023/02/05 04:09:01;;;;;;;14.10;5.25;;;0.60;88.60;;;;;;5044561;28;20021;-67
2023/02/05 04:11:27;;;;;;;16.40;5.20;;;0.70;90.00;;;;;;5055596;28;20077;-67
2023/02/05 04:13:52;;;;;;;11.95;4.25;;;0.70;91.30;;;;;;5054341;28;20181;-67
2023/02/05 04:16:18;;;;;;;16.85;4.60;;;0.60;90.70;;;;;;5040705;28;20102;-67
2023/02/05 04:18:44;;;;;;;21.63;5.22;;;0.60;91.10;;;;;;5054717;28;20017;-67
2023/02/05 04:21:09;;;;;;;16.80;5.15;;;0.60;91.40;;;;;;5046741;28;20026;-67
2023/02/05 04:23:35;;;;;;;18.50;5.30;;;0.60;91.60;;;;;;5034934;28;20423;-68
2023/02/05 04:26:00;;;;;;;15.55;4.22;;;0.60;91.80;;;;;;5045738;28;20125;-67
2023/02/05 04:28:26;;;;;;;14.25;4.22;;;0.60;92.70;;;;;;5036137;28;20029;-67
2023/02/05 04:30:51;;;;;;;19.08;4.13;;;0.50;93.00;;;;;;5043455;28;20486;-68
2023/02/05 04:33:17;;;;;;;16.17;4.30;;;0.50;93.20;;;;;;5053775;28;20536;-68
2023/02/05 04:35:42;;;;;;;17.15;4.93;;;0.40;93.20;;;;;;5053814;28;20057;-67
2023/02/05 04:38:08;;;;;;;17.45;4.80;;;0.30;93.30;;;;;;5040578;28;20025;-67
2023/02/05 04:40:33;;;;;;;16.92;4.22;;;0.20;93.00;;;;;;5043185;28;20018;-67
2023/02/05 04:42:59;;;;;;;14.07;4.95;;;0.20;92.10;;;;;;5048731;28;20044;-67
2023/02/05 04:45:29;;;;;;;17.13;5.13;;;0.20;91.30;;;;;;5042827;28;20037;-67
2023/02/05 04:47:56;;;;;;;17.38;5.05;;;0.10;91.10;;;;;;5050938;28;20299;-67
2023/02/05 04:50:21;;;;;;;21.70;5.88;;;0.00;90.10;;;;;;5046316;28;20425;-67
2023/02/05 04:52:47;;;;;;;21.27;5.13;;;0.10;89.90;;;;;;5047424;28;20029;-68
2023/02/05 04:55:12;;;;;;;17.77;4.97;;;0.10;91.10;;;;;;5057508;28;20495;-68
2023/02/05 04:57:38;;;;;;;12.25;4.35;;;0.00;91.60;;;;;;5047813;28;20453;-68
2023/02/05 05:00:04;;;;;;;17.42;3.70;;;0.00;91.50;;;;;;5036984;28;20020;-68
2023/02/05 05:02:30;;;;;;;19.08;4.55;;;0.00;91.80;;;;;;5051561;28;20057;-68
2023/02/05 05:04:56;;;;;;;15.35;4.78;;;-0.20;92.50;;;;;;5058640;28;20039;-68
2023/02/05 05:07:21;;;;;;;16.38;4.85;;;-0.30;91.80;;;;;;5054122;28;20108;-68
2023/02/05 05:09:47;;;;;;;15.63;4.28;;;-0.40;90.90;;;;;;5055399;28;20025;-68
2023/02/05 05:12:16;;;;;;;14.10;4.30;;;-0.40;90.90;;;;;;5055124;28;20029;-68
2023/02/05 05:14:41;;;;;;;14.85;4.40;;;-0.50;91.60;;;;;;5053511;28;20021;-67
2023/02/05 05:17:07;;;;;;;14.65;3.97;;;-0.70;90.90;;;;;;5051713;28;20026;-68
2023/02/05 05:19:32;;;;;;;17.02;4.50;;;-0.70;89.30;;;;;;5049724;28;20025;-68
2023/02/05 05:21:58;;;;;;;17.10;5.38;;;-0.60;88.10;;;;;;5053701;28;20380;-68
2023/02/05 05:24:23;;;;;;;14.40;4.75;;;-0.50;87.40;;;;;;5047614;28;20127;-68
2023/02/05 05:26:49;;;;;;;16.55;5.10;;;-0.40;87.90;;;;;;5040717;28;20419;-68
2023/02/05 05:29:14;;;;;;;15.07;4.30;;;-0.30;88.20;;;;;;5047528;28;20021;-68
2023/02/05 05:31:41;;;;;;;13.73;4.18;;;-0.20;88.10;;;;;;5047973;28;20025;-68
2023/02/05 05:34:07;;;;;;;13.68;4.07;;;-0.10;89.90;;;;;;5052463;28;20017;-68
2023/02/05 05:36:32;;;;;;;16.65;6.15;;;0.00;91.10;;;;;;5052952;28;20490;-68
2023/02/05 05:43:45;;;;;;;18.75;5.30;;;0.10;91.50;;;;;;5036113;28;20025;-68
2023/02/05 05:44:27;;;;;;;17.35;4.55;;;0.20;92.60;;;;;;5056414;28;20078;-68
2023/02/05 05:46:53;;;;;;;17.58;4.53;;;0.20;92.10;;;;;;5056446;28;20032;-67
2023/02/05 05:49:18;;;;;;;16.90;4.68;;;0.30;93.00;;;;;;5056971;28;20025;-67
2023/02/05 05:51:44;;;;;;;17.65;4.03;;;0.30;93.00;;;;;;5056153;28;20033;-67
2023/02/05 05:54:09;;;;;;;16.30;3.88;;;0.30;94.30;;;;;;5053341;28;20066;-66
2023/02/05 05:56:35;;;;;;;19.13;4.65;;;0.50;95.70;;;;;;5049064;28;20101;-69
2023/02/05 05:59:00;;;;;;;13.02;4.07;;;0.50;96.70;;;;;;5054311;28;20056;-69
2023/02/05 06:01:27;;;;;;;21.13;4.10;;;0.60;97.10;;;;;;5051975;28;20025;-69
2023/02/05 06:03:52;;;;;;;17.48;4.28;;;0.60;96.80;;;;;;5054864;28;20123;-68
2023/02/05 06:06:18;;;;;;;16.63;3.88;;;0.50;96.20;;;;;;5054141;28;20047;-68
2023/02/05 06:08:44;;;;;;;11.88;3.28;;;0.50;95.80;;;;;;5054837;28;20033;-68
2023/02/05 06:11:15;;;;;;;15.05;5.53;;;0.40;95.80;;;;;;5054971;28;20029;-68
2023/02/05 06:13:41;;;;;;;13.65;3.95;;;0.40;94.70;;;;;;5048333;28;20083;-68
2023/02/05 06:16:06;;;;;;;14.07;3.95;;;0.30;94.60;;;;;;5055460;28;20025;-68
2023/02/05 06:18:32;;;;;;;18.10;4.72;;;0.20;93.80;;;;;;5039830;28;20033;-67
2023/02/05 06:20:58;;;;;;;16.23;3.88;;;0.10;93.50;;;;;;5037493;28;20025;-67
2023/02/05 06:23:23;;;;;;;10.50;3.50;;;0.00;93.00;;;;;;5042859;28;20479;-67
2023/02/05 06:25:49;;;;;;;13.88;4.28;;;0.00;91.80;;;;;;5049734;28;20067;-67
2023/02/05 06:28:14;;;;;;;19.63;4.72;;;-0.10;92.30;;;;;;5054609;28;20082;-67
2023/02/05 06:30:40;;;;;;;13.30;4.20;;;-0.10;92.20;;;;;;5057281;28;20368;-67
2023/02/05 06:33:05;;;;;;;12.73;4.30;;;-0.20;92.60;;;;;;5053953;28;20380;-67
2023/02/05 06:35:31;;;;;;;12.82;4.43;;;-0.20;91.90;;;;;;5041237;28;20417;-67
2023/02/05 06:37:57;;;;;;;15.88;4.45;;;-0.20;90.90;;;;;;5050153;28;20094;-67
2023/02/05 06:40:24;;;;;;;13.45;4.82;;;-0.10;89.90;;;;;;5054561;28;20024;-67
2023/02/05 06:42:51;;;;;;;25.92;11.00;;;-0.10;89.80;;;;;;5047142;28;20120;-67
2023/02/05 06:45:17;;;;;;;14.75;5.35;;;0.00;89.90;;;;;;5041479;28;20082;-67
2023/02/05 06:47:43;;;;;;;18.90;6.05;;;0.10;90.20;;;;;;5043138;28;20029;-67
2023/02/05 06:50:08;;;;;;;27.23;13.00;;;0.20;90.70;;;;;;5055150;28;20094;-67
2023/02/05 06:52:34;;;;;;;24.50;7.97;;;0.30;91.00;;;;;;5046517;28;20090;-67
2023/02/05 06:54:59;;;;;;;23.77;6.10;;;0.40;91.00;;;;;;5048748;28;20022;-66
2023/02/05 06:57:25;;;;;;;26.58;10.32;;;0.60;91.90;;;;;;5050298;28;20106;-66
2023/02/05 06:59:51;;;;;;;17.30;7.35;;;0.80;94.90;;;;;;5043557;28;20025;-66
2023/02/05 07:02:16;;;;;;;16.27;6.22;;;0.80;96.20;;;;;;5043598;28;20032;-66
2023/02/05 07:04:42;;;;;;;17.67;5.57;;;1.00;96.80;;;;;;5056510;28;20061;-66
2023/02/05 07:07:07;;;;;;;16.80;5.75;;;1.10;98.00;;;;;;5055224;28;20363;-66
2023/02/05 07:09:33;;;;;;;15.27;4.45;;;1.20;98.00;;;;;;5055168;28;20414;-66
2023/02/05 07:11:58;;;;;;;14.18;4.93;;;1.30;98.00;;;;;;5056388;28;20334;-66
2023/02/05 07:14:24;;;;;;;11.38;4.70;;;1.40;98.00;;;;;;5037553;28;20061;-66
2023/02/05 07:16:50;;;;;;;22.30;5.82;;;1.40;98.00;;;;;;5039887;28;20376;-66
2023/02/05 07:19:16;;;;;;;27.13;8.73;;;1.40;98.00;;;;;;5044650;28;20029;-66
2023/02/05 07:21:41;;;;;;;21.90;7.53;;;1.30;98.00;;;;;;5039745;28;20333;-66
2023/02/05 07:24:07;;;;;;;25.40;8.32;;;1.30;98.00;;;;;;5045396;28;20037;-66
2023/02/05 07:26:34;;;;;;;16.95;6.25;;;1.30;98.00;;;;;;5055962;28;20064;-66
2023/02/05 07:29:00;;;;;;;15.50;5.90;;;1.40;98.00;;;;;;5055024;28;20025;-66
2023/02/05 07:31:26;;;;;;;18.48;7.85;;;1.40;98.00;;;;;;5036220;28;20035;-66
2023/02/05 07:33:51;;;;;;;16.73;6.55;;;1.40;98.00;;;;;;5035431;28;20112;-66
2023/02/05 07:36:18;;;;;;;21.50;9.23;;;1.50;98.00;;;;;;5044757;28;20029;-66
2023/02/05 07:38:45;;;;;;;16.88;8.65;;;1.50;98.00;;;;;;5054508;28;20033;-66
2023/02/05 07:41:13;;;;;;;22.30;7.60;;;1.50;98.00;;;;;;5054229;28;20021;-66
2023/02/05 07:43:39;;;;;;;17.10;7.05;;;1.50;98.00;;;;;;5055905;28;20406;-67
2023/02/05 07:46:08;;;;;;;15.95;6.35;;;1.50;98.00;;;;;;5037940;28;20028;-66
2023/02/05 07:48:34;;;;;;;17.45;6.45;;;1.60;98.00;;;;;;5035021;28;20025;-66
2023/02/05 07:51:00;;;;;;;17.35;6.50;;;1.70;98.00;;;;;;5041946;28;20299;-66
2023/02/05 07:53:26;;;;;;;22.85;5.85;;;1.70;98.00;;;;;;5054263;28;20295;-66
2023/02/05 07:55:54;;;;;;;13.75;5.72;;;1.80;98.00;;;;;;5040309;28;20028;-66
2023/02/05 07:58:20;;;;;;;19.90;6.82;;;1.90;98.00;;;;;;5035778;28;20029;-66
2023/02/05 08:00:46;;;;;;;26.85;10.60;;;1.80;98.00;;;;;;5035840;28;20365;-66
2023/02/05 08:03:12;;;;;;;29.33;12.48;;;1.80;98.00;;;;;;5035698;28;20034;-67
2023/02/05 08:05:39;;;;;;;16.25;7.68;;;1.70;98.00;;;;;;5041897;28;20521;-66
2023/02/05 08:08:05;;;;;;;20.88;7.57;;;1.70;98.00;;;;;;5054409;28;20090;-66
2023/02/05 08:10:31;;;;;;;16.58;6.68;;;1.90;98.00;;;;;;5055398;28;20021;-66
2023/02/05 08:12:57;;;;;;;19.30;6.05;;;2.00;98.00;;;;;;5055601;28;20033;-66
2023/02/05 08:15:23;;;;;;;15.25;6.20;;;1.90;98.00;;;;;;5046357;28;20060;-67
2023/02/05 08:17:51;;;;;;;38.88;20.83;;;1.90;98.00;;;;;;5049189;28;20033;-67
2023/02/05 08:20:17;;;;;;;28.27;12.57;;;1.90;98.00;;;;;;5047010;28;20414;-66
2023/02/05 08:22:44;;;;;;;19.20;6.55;;;2.10;98.00;;;;;;5036035;28;20025;-66
2023/02/05 08:25:12;;;;;;;18.63;5.38;;;2.20;98.00;;;;;;5040985;28;20041;-66
2023/02/05 08:27:40;;;;;;;16.52;6.93;;;2.40;98.00;;;;;;5039494;28;20077;-67
2023/02/05 08:30:12;;;;;;;15.10;5.60;;;2.60;98.00;;;;;;5039596;28;20025;-67
2023/02/05 08:32:38;;;;;;;16.77;5.93;;;2.70;98.00;;;;;;5041246;28;20068;-67
2023/02/05 08:35:04;;;;;;;15.07;5.15;;;2.80;98.00;;;;;;5049251;28;20079;-67
2023/02/05 08:37:30;;;;;;;14.95;5.25;;;2.80;98.00;;;;;;5057859;28;20021;-67
2023/02/05 08:39:55;;;;;;;14.45;5.10;;;2.90;98.00;;;;;;5058577;28;20033;-67
2023/02/05 08:42:21;;;;;;;14.05;5.80;;;3.00;98.00;;;;;;5059279;28;20040;-67
2023/02/05 08:44:49;;;;;;;18.83;7.35;;;3.10;98.00;;;;;;5055340;28;20033;-67
2023/02/05 08:47:18;;;;;;;18.30;7.32;;;3.20;98.00;;;;;;5040959;28;20033;-67
2023/02/05 08:49:43;;;;;;;20.35;6.72;;;3.40;98.00;;;;;;5039291;28;20047;-67
2023/02/05 08:52:09;;;;;;;18.73;6.93;;;3.70;98.00;;;;;;5038929;28;20100;-69
2023/02/05 08:54:35;;;;;;;30.50;11.93;;;3.80;98.00;;;;;;5038375;28;20410;-68
2023/02/05 08:57:06;;;;;;;25.67;8.68;;;3.90;97.20;;;;;;5039013;28;20314;-68
2023/02/05 08:59:32;;;;;;;15.98;6.00;;;3.90;96.30;;;;;;5038920;28;20037;-68
2023/02/05 09:01:57;;;;;;;20.05;6.65;;;4.10;96.10;;;;;;5042767;28;20029;-68
2023/02/05 09:04:24;;;;;;;16.42;6.97;;;4.10;95.80;;;;;;5056938;28;20033;-68
2023/02/05 09:06:52;;;;;;;42.78;19.33;;;4.20;96.00;;;;;;5057699;28;20076;-68
2023/02/05 09:09:17;;;;;;;34.03;16.33;;;4.30;95.90;;;;;;5056330;28;20037;-67
2023/02/05 09:11:46;;;;;;;26.65;9.05;;;4.30;95.40;;;;;;5040954;28;20021;-68
2023/02/05 09:14:13;;;;;;;53.33;21.95;;;4.30;95.10;;;;;;5047763;28;20071;-68
2023/02/05 09:16:39;;;;;;;20.90;9.98;;;4.20;95.70;;;;;;5038560;28;20037;-68
2023/02/05 09:19:05;;;;;;;15.80;7.53;;;4.20;95.90;;;;;;5038349;28;20029;-68
2023/02/05 09:21:30;;;;;;;14.95;6.15;;;4.20;95.80;;;;;;5047109;28;20037;-68
2023/02/05 09:23:56;;;;;;;19.15;8.00;;;4.20;95.20;;;;;;5041064;28;20414;-68
2023/02/05 09:26:23;;;;;;;22.48;11.20;;;4.10;95.80;;;;;;5058261;28;20045;-67
2023/02/05 09:28:48;;;;;;;39.85;15.77;;;4.10;95.90;;;;;;5057234;28;20021;-67
2023/02/05 09:31:17;;;;;;;24.63;9.43;;;4.10;96.00;;;;;;5058087;28;20418;-67
2023/02/05 09:33:44;;;;;;;34.92;14.18;;;4.10;95.90;;;;;;5046377;28;20040;-68
2023/02/05 09:36:13;;;;;;;24.10;8.45;;;4.00;96.70;;;;;;5056863;28;20032;-67
2023/02/05 09:38:40;;;;;;;23.40;9.52;;;4.00;96.60;;;;;;5057006;28;20079;-68
2023/02/05 09:41:11;;;;;;;31.13;11.45;;;4.00;96.60;;;;;;5057909;28;20033;-67
2023/02/05 09:43:58;;;;;;;24.55;9.68;;;4.00;96.90;;;;;;5055394;28;20381;-67
2023/02/05 09:47:08;;;;;;;22.05;8.23;;;4.00;96.90;;;;;;5037921;28;20036;-67
2023/02/05 09:49:37;;;;;;;21.02;7.72;;;4.00;96.70;;;;;;5034408;28;20430;-68
2023/02/05 09:52:10;;;;;;;14.45;5.70;;;4.00;96.60;;;;;;5053895;28;20029;-67
2023/02/05 09:54:41;;;;;;;14.05;5.53;;;3.90;96.60;;;;;;5036956;28;20156;-67
2023/02/05 09:57:13;;;;;;;14.80;4.85;;;3.80;96.60;;;;;;5037856;28;20112;-67
2023/02/05 09:59:42;;;;;;;15.93;5.53;;;3.80;97.10;;;;;;5038018;28;20053;-67
2023/02/05 10:02:48;;;;;;;20.00;6.90;;;3.90;97.00;;;;;;5044597;28;20057;-67
2023/02/05 10:05:16;;;;;;;23.38;8.10;;;3.80;97.40;;;;;;5043528;28;20124;-67
2023/02/05 10:07:44;;;;;;;17.25;5.95;;;3.70;98.00;;;;;;5046752;28;20313;-68
2023/02/05 10:10:23;;;;;;;18.27;7.47;;;3.50;98.00;;;;;;5054702;28;20053;-67
2023/02/05 10:13:03;;;;;;;22.00;7.45;;;3.40;98.00;;;;;;5044897;28;20041;-67
2023/02/05 10:15:35;;;;;;;25.38;12.18;;;3.40;98.00;;;;;;5037416;28;20025;-67
2023/02/05 10:18:07;;;;;;;28.23;9.35;;;3.40;98.00;;;;;;5047003;28;20052;-67
2023/02/05 10:21:03;;;;;;;27.75;6.80;;;3.30;98.00;;;;;;5048753;28;20021;-67
2023/02/05 10:24:06;;;;;;;20.77;6.97;;;3.20;98.00;;;;;;5041326;28;20033;-67
2023/02/05 10:26:45;;;;;;;15.57;7.38;;;3.20;98.00;;;;;;5057144;28;20040;-67
2023/02/05 10:29:20;;;;;;;24.58;8.73;;;3.20;98.00;;;;;;5057166;28;20040;-67
2023/02/05 10:32:10;;;;;;;19.52;7.68;;;3.20;98.00;;;;;;5056063;28;20028;-67
2023/02/05 10:34:54;;;;;;;21.35;7.57;;;3.00;98.00;;;;;;5056161;28;20428;-68
2023/02/05 10:37:28;;;;;;;23.08;8.75;;;2.90;98.00;;;;;;5057092;28;20406;-68
2023/02/05 10:39:56;;;;;;;24.17;8.82;;;2.60;98.00;;;;;;5035237;28;20035;-68
2023/02/05 10:42:33;;;;;;;21.02;7.93;;;2.50;98.00;;;;;;5035736;28;20029;-68
2023/02/05 10:45:11;;;;;;;22.30;8.05;;;2.40;96.80;;;;;;5036761;28;20033;-69
2023/02/05 10:47:41;;;;;;;19.85;6.97;;;2.30;95.30;;;;;;5048635;28;20048;-69
2023/02/05 10:50:18;;;;;;;24.25;8.63;;;2.10;94.20;;;;;;5054873;28;20033;-69
2023/02/05 10:52:44;;;;;;;23.98;10.30;;;2.00;92.80;;;;;;5055561;28;20082;-69
2023/02/05 10:55:14;;;;;;;25.13;9.05;;;1.90;91.10;;;;;;5056604;28;20025;-69
2023/02/05 10:57:39;;;;;;;22.17;8.95;;;1.70;90.30;;;;;;5056641;28;20339;-69
2023/02/05 11:00:25;;;;;;;23.45;9.18;;;1.50;88.50;;;;;;5056565;28;20025;-69
2023/02/05 11:02:57;;;;;;;22.23;8.15;;;1.30;87.00;;;;;;5056491;28;20025;-70
2023/02/05 11:05:40;;;;;;;17.17;7.00;;;1.30;84.90;;;;;;5036541;28;20104;-69
2023/02/05 11:08:52;;;;;;;22.90;8.38;;;1.50;83.90;;;;;;5035443;28;20326;-69
2023/02/05 11:11:38;;;;;;;24.92;9.15;;;1.50;83.70;;;;;;5036450;28;20369;-70
2023/02/05 11:14:06;;;;;;;20.63;7.70;;;1.60;82.90;;;;;;5036485;28;20083;-70
2023/02/05 11:16:49;;;;;;;21.95;7.63;;;1.70;83.00;;;;;;5035280;28;20409;-69
2023/02/05 11:19:35;;;;;;;26.80;8.02;;;1.80;83.50;;;;;;5048686;28;20021;-69
2023/02/05 11:22:03;;;;;;;23.20;7.55;;;1.90;85.90;;;;;;5055875;28;20041;-69
2023/02/05 11:24:32;;;;;;;25.30;10.43;;;1.90;86.50;;;;;;5054862;28;20041;-69
2023/02/05 11:27:23;;;;;;;16.50;5.88;;;2.00;88.60;;;;;;5056142;28;20028;-69
2023/02/05 11:29:48;;;;;;;21.00;6.82;;;2.10;90.80;;;;;;5056132;28;20029;-69
2023/02/05 11:32:35;;;;;;;22.00;8.07;;;2.10;92.70;;;;;;5055925;28;20036;-69
2023/02/05 11:35:35;;;;;;;22.40;7.38;;;2.10;91.60;;;;;;5054994;28;20313;-69
2023/02/05 11:38:08;;;;;;;22.00;7.80;;;2.00;90.80;;;;;;5051656;28;20410;-69
2023/02/05 11:40:35;;;;;;;28.42;11.55;;;2.00;89.50;;;;;;5054039;28;20033;-69
2023/02/05 11:43:07;;;;;;;29.77;11.52;;;2.00;88.50;;;;;;5055945;28;20108;-69
2023/02/05 11:45:37;;;;;;;29.58;9.65;;;1.90;88.20;;;;;;5053293;28;20032;-69
2023/02/05 11:48:20;;;;;;;29.33;10.30;;;1.90;88.10;;;;;;5052155;28;20061;-69
2023/02/05 11:50:46;;;;;;;22.77;8.40;;;1.90;86.50;;;;;;5048740;28;20028;-69
2023/02/05 11:53:18;;;;;;;25.30;10.95;;;1.90;86.70;;;;;;5054392;28;20079;-69
2023/02/05 11:55:44;;;;;;;24.50;10.43;;;1.80;86.70;;;;;;5055875;28;20021;-69
2023/02/05 11:58:30;;;;;;;27.33;12.20;;;1.80;85.60;;;;;;5055151;28;20021;-69
2023/02/05 12:01:27;;;;;;;37.20;13.75;;;1.70;84.60;;;;;;5055774;28;20414;-69
2023/02/05 12:03:59;;;;;;;21.35;8.85;;;1.80;84.10;;;;;;5052089;28;20037;-69
2023/02/05 12:06:32;;;;;;;19.27;9.23;;;1.80;83.00;;;;;;5055581;28;20422;-69
2023/02/05 12:08:57;;;;;;;23.95;13.35;;;1.90;82.50;;;;;;5036027;28;20040;-68
2023/02/05 12:14:46;;;;;;;24.80;10.98;;;1.90;83.90;;;;;;5035707;28;20135;-69
2023/02/05 12:17:48;;;;;;;22.05;10.75;;;1.90;83.20;;;;;;5035622;28;20318;-69
2023/02/05 12:20:43;;;;;;;20.20;8.65;;;1.90;82.60;;;;;;5035553;28;20024;-70
2023/02/05 12:23:23;;;;;;;20.42;8.48;;;1.90;83.40;;;;;;5040653;28;20032;-69
2023/02/05 12:25:53;;;;;;;17.60;9.25;;;2.00;83.90;;;;;;5055390;28;20048;-69
2023/02/05 12:28:24;;;;;;;19.02;8.93;;;2.10;84.20;;;;;;5055441;28;20115;-69
2023/02/05 12:31:07;;;;;;;23.52;8.32;;;2.10;85.80;;;;;;5055375;28;20025;-69
2023/02/05 12:34:11;;;;;;;24.33;12.18;;;2.10;86.50;;;;;;5055494;28;20032;-69
2023/02/05 12:36:46;;;;;;;21.67;10.52;;;2.10;85.70;;;;;;5055548;28;20017;-68
2023/02/05 12:39:33;;;;;;;17.77;9.05;;;2.20;86.00;;;;;;5052971;28;20095;-68
2023/02/05 12:42:33;;;;;;;23.38;8.30;;;2.20;86.30;;;;;;5055272;28;20033;-69
2023/02/05 12:45:16;;;;;;;18.65;9.20;;;2.20;86.80;;;;;;5055169;28;20029;-68
2023/02/05 12:48:03;;;;;;;18.17;8.43;;;2.20;86.70;;;;;;5055268;28;20021;-68
2023/02/05 12:50:51;;;;;;;14.75;7.75;;;2.20;87.90;;;;;;5055386;28;20025;-68
2023/02/05 12:53:29;;;;;;;18.83;7.60;;;2.20;87.40;;;;;;5052188;28;20056;-68
2023/02/05 12:56:13;;;;;;;21.90;10.05;;;2.20;88.00;;;;;;5055263;28;20063;-68
2023/02/05 12:58:46;;;;;;;25.75;13.02;;;2.10;87.30;;;;;;5054035;28;20421;-69
2023/02/05 13:01:19;;;;;;;32.17;16.15;;;2.10;86.20;;;;;;5055282;28;20033;-68
2023/02/05 13:03:51;;;;;;;20.17;9.48;;;2.10;85.60;;;;;;5055336;28;20051;-69
2023/02/05 13:06:32;;;;;;;21.15;9.48;;;2.10;86.00;;;;;;5054002;28;20294;-68
2023/02/05 13:09:10;;;;;;;23.13;12.15;;;2.00;85.60;;;;;;5053296;28;20492;-68